Ocontofalls, Wisconsin
Current Conditions -  °F | °C
As of 6:15 AM on Monday 24 Nov 2014 (Local Time) from KOCQ Reporting Station
Overcast Overcast  
Wind Chill: 35°   Ceiling: 300
Heat Index: 39°   Visibility: 10mi
Dew Point: 39°   Wind: 6mph
Humidity: 100%   Direction: 280°W
Pressure: 29"   Gusts: NA
Location:  44.8816°N, 88.1735°W
Report Text: KOCQ 241215Z AUTO 28005KT 10SM BKN003 OVC026 04/04 A2900 RMK AO1 T00400040
Loading
Personal Weather Stations






























Interactive Weather Map New forecast layout! Learn more

10-Day Weather Forecast

Advertisements
Track Severe Weather on mobile